Time;durP1;ratioP1;P1;durP2;ratioP2;P2;SDS_P1;SDS_P2;PMS_P1;PMS_P2;Temp;Humidity;BMP_temperature;BMP_pressure;BME280_temperature;BME280_humidity;BME280_pressure;Samples;Min_cycle;Max_cycle;Signal;HPM_P1;HPM_P2
2024/01/26 00:00:16;;;;;;;6.70;3.47;;;;;;;;;;2089630;28;20029;-41
2024/01/26 00:01:17;;;;;;;6.65;3.72;;;;;;;;;;2090245;28;20454;-41
2024/01/26 00:02:19;;;;;;;7.35;3.42;;;;;;;;;;2090096;28;20029;-40
2024/01/26 00:03:23;;;;;;;7.43;4.18;;;;;;;;;;2089922;28;20028;-41
2024/01/26 00:04:24;;;;;;;7.03;3.63;;;;;;;;;;2081316;28;20080;-40
2024/01/26 00:05:26;;;;;;;9.05;3.92;;;;;;;;;;2072720;28;20413;-41
2024/01/26 00:06:27;;;;;;;6.45;4.40;;;;;;;;;;2081289;28;20551;-42
2024/01/26 00:07:28;;;;;;;4.65;3.65;;;;;;;;;;2090295;28;20116;-41
2024/01/26 00:08:30;;;;;;;7.68;3.50;;;;;;;;;;2089673;28;20025;-41
2024/01/26 00:09:32;;;;;;;7.63;3.60;;;;;;;;;;2090242;28;20040;-41
2024/01/26 00:10:33;;;;;;;8.32;4.40;;;;;;;;;;2081000;28;20010;-40
2024/01/26 00:11:34;;;;;;;7.50;3.70;;;;;;;;;;2089551;28;20048;-41
2024/01/26 00:12:36;;;;;;;5.93;3.70;;;;;;;;;;2097722;28;20107;-41
2024/01/26 00:13:37;;;;;;;6.30;3.70;;;;;;;;;;2089900;28;20017;-41
2024/01/26 00:14:38;;;;;;;8.52;3.70;;;;;;;;;;2090053;28;20016;-42
2024/01/26 00:15:40;;;;;;;5.95;3.67;;;;;;;;;;2089972;28;20082;-41
2024/01/26 00:16:42;;;;;;;7.50;3.90;;;;;;;;;;2089217;28;20426;-40
2024/01/26 00:17:43;;;;;;;5.45;3.38;;;;;;;;;;2089871;28;20111;-41
2024/01/26 00:18:45;;;;;;;6.20;3.45;;;;;;;;;;2090288;28;20035;-40
2024/01/26 00:19:46;;;;;;;6.28;4.00;;;;;;;;;;2081305;28;20017;-40
2024/01/26 00:20:47;;;;;;;6.88;3.80;;;;;;;;;;2081321;28;20041;-40
2024/01/26 00:21:48;;;;;;;7.22;3.30;;;;;;;;;;2081405;28;20030;-41
2024/01/26 00:22:50;;;;;;;6.70;3.60;;;;;;;;;;2081448;28;20022;-42
2024/01/26 00:23:51;;;;;;;5.45;3.70;;;;;;;;;;2089609;28;20025;-41
2024/01/26 00:24:52;;;;;;;6.10;3.65;;;;;;;;;;2089975;28;20028;-40
2024/01/26 00:25:54;;;;;;;6.40;3.60;;;;;;;;;;2089834;28;20052;-40
2024/01/26 00:26:55;;;;;;;12.02;6.78;;;;;;;;;;2080918;28;20016;-41
2024/01/26 00:27:57;;;;;;;10.68;4.72;;;;;;;;;;2079925;28;20067;-39
2024/01/26 00:28:58;;;;;;;7.10;4.05;;;;;;;;;;2090142;28;20017;-40
2024/01/26 00:30:00;;;;;;;6.65;3.60;;;;;;;;;;2090079;28;20464;-40
2024/01/26 00:31:01;;;;;;;9.07;4.15;;;;;;;;;;2090003;28;20384;-41
2024/01/26 00:32:03;;;;;;;7.72;4.85;;;;;;;;;;2089942;28;20021;-41
2024/01/26 00:33:04;;;;;;;5.20;3.55;;;;;;;;;;2090216;28;20029;-40
2024/01/26 00:34:05;;;;;;;7.43;3.45;;;;;;;;;;2090052;28;20345;-40
2024/01/26 00:35:07;;;;;;;7.97;3.72;;;;;;;;;;2090354;28;20028;-40
2024/01/26 00:36:08;;;;;;;6.20;3.80;;;;;;;;;;2089859;28;20025;-40
2024/01/26 00:37:09;;;;;;;9.25;3.88;;;;;;;;;;2089908;28;20094;-41
2024/01/26 00:38:11;;;;;;;6.55;3.75;;;;;;;;;;2089601;28;20488;-40
2024/01/26 00:39:12;;;;;;;6.45;3.30;;;;;;;;;;2089325;28;20013;-41
2024/01/26 00:40:13;;;;;;;7.03;3.83;;;;;;;;;;2089788;28;20158;-40
2024/01/26 00:41:14;;;;;;;6.88;3.75;;;;;;;;;;2081015;28;20028;-40
2024/01/26 00:42:16;;;;;;;6.15;3.30;;;;;;;;;;2073057;28;20028;-40
2024/01/26 00:43:17;;;;;;;5.97;3.60;;;;;;;;;;2081222;28;20033;-41
2024/01/26 00:44:19;;;;;;;8.68;3.72;;;;;;;;;;2090091;28;20048;-41
2024/01/26 00:45:20;;;;;;;6.40;3.60;;;;;;;;;;2090032;28;20024;-40
2024/01/26 00:46:21;;;;;;;9.05;3.97;;;;;;;;;;2090111;28;20056;-40
2024/01/26 00:47:22;;;;;;;6.68;3.60;;;;;;;;;;2089861;28;20074;-41
2024/01/26 00:48:24;;;;;;;6.20;3.25;;;;;;;;;;2089917;28;20044;-41
2024/01/26 00:49:25;;;;;;;7.88;3.80;;;;;;;;;;2090137;28;20029;-40
2024/01/26 00:50:26;;;;;;;4.80;3.60;;;;;;;;;;2080844;28;20049;-40
2024/01/26 00:51:28;;;;;;;6.90;3.72;;;;;;;;;;2080868;28;20040;-40
2024/01/26 00:52:29;;;;;;;6.53;3.53;;;;;;;;;;2090041;28;20020;-40
2024/01/26 00:53:30;;;;;;;7.75;4.10;;;;;;;;;;2089264;28;20056;-40
2024/01/26 00:54:31;;;;;;;5.35;3.50;;;;;;;;;;2073737;28;20054;-40
2024/01/26 00:55:33;;;;;;;6.95;3.30;;;;;;;;;;2080461;28;20022;-40
2024/01/26 00:56:34;;;;;;;7.55;3.65;;;;;;;;;;2089759;28;20033;-40
2024/01/26 00:57:35;;;;;;;7.45;3.95;;;;;;;;;;2089646;28;20021;-40
2024/01/26 00:58:36;;;;;;;6.63;3.67;;;;;;;;;;2089785;28;20039;-40
2024/01/26 00:59:38;;;;;;;7.38;3.40;;;;;;;;;;2089768;28;20021;-40
2024/01/26 01:00:39;;;;;;;7.35;4.03;;;;;;;;;;2089768;28;20407;-40
2024/01/26 01:01:41;;;;;;;7.90;3.55;;;;;;;;;;2086881;28;20025;-40
2024/01/26 01:02:43;;;;;;;6.30;3.75;;;;;;;;;;2089847;28;20048;-40
2024/01/26 01:03:44;;;;;;;7.63;3.78;;;;;;;;;;2089654;28;20376;-40
2024/01/26 01:04:45;;;;;;;5.30;3.70;;;;;;;;;;2089493;28;20103;-40
2024/01/26 01:05:46;;;;;;;7.70;3.80;;;;;;;;;;2089842;28;20396;-40
2024/01/26 01:06:48;;;;;;;5.60;3.47;;;;;;;;;;2089881;28;20104;-41
2024/01/26 01:07:49;;;;;;;5.93;3.60;;;;;;;;;;2089697;28;20040;-41
2024/01/26 01:08:50;;;;;;;6.10;3.35;;;;;;;;;;2089438;28;20056;-41
2024/01/26 01:09:51;;;;;;;7.75;3.45;;;;;;;;;;2089109;28;20088;-40
2024/01/26 01:10:53;;;;;;;5.20;3.10;;;;;;;;;;2089837;28;20029;-41
2024/01/26 01:11:54;;;;;;;6.20;3.92;;;;;;;;;;2089282;28;20013;-41
2024/01/26 01:12:57;;;;;;;6.75;3.22;;;;;;;;;;2089491;28;20571;-41
2024/01/26 01:13:58;;;;;;;6.65;3.50;;;;;;;;;;2089929;28;20070;-40
2024/01/26 01:14:59;;;;;;;6.93;2.80;;;;;;;;;;2089833;28;20025;-41
2024/01/26 01:16:00;;;;;;;4.88;3.45;;;;;;;;;;2089687;28;20064;-39
2024/01/26 01:17:02;;;;;;;8.05;3.35;;;;;;;;;;2089872;28;20024;-40
2024/01/26 01:18:03;;;;;;;4.40;2.95;;;;;;;;;;2089434;28;20033;-40
2024/01/26 01:19:05;;;;;;;6.38;3.53;;;;;;;;;;2089614;28;20476;-39
2024/01/26 01:20:08;;;;;;;6.07;3.17;;;;;;;;;;2085283;28;20013;-40
2024/01/26 01:21:09;;;;;;;5.70;3.42;;;;;;;;;;2081318;28;20014;-40
2024/01/26 01:22:11;;;;;;;7.65;3.83;;;;;;;;;;2082217;28;20044;-40
2024/01/26 01:23:13;;;;;;;6.85;3.22;;;;;;;;;;2083537;28;20467;-40
2024/01/26 01:24:14;;;;;;;4.68;3.30;;;;;;;;;;2089660;28;20100;-40
2024/01/26 01:25:16;;;;;;;4.85;3.78;;;;;;;;;;2089603;28;20033;-40
2024/01/26 01:26:18;;;;;;;5.55;3.40;;;;;;;;;;2080646;28;20455;-42
2024/01/26 01:27:19;;;;;;;4.72;3.05;;;;;;;;;;2080672;28;20045;-40
2024/01/26 01:28:20;;;;;;;7.10;3.65;;;;;;;;;;2080884;28;20420;-40
2024/01/26 01:29:21;;;;;;;6.13;3.55;;;;;;;;;;2081058;28;20105;-40
2024/01/26 01:30:23;;;;;;;4.63;3.10;;;;;;;;;;2089451;28;20025;-40
2024/01/26 01:31:24;;;;;;;5.38;3.10;;;;;;;;;;2089543;28;20099;-39
2024/01/26 01:32:26;;;;;;;5.03;3.00;;;;;;;;;;2089685;28;20013;-39
2024/01/26 01:33:27;;;;;;;5.28;3.45;;;;;;;;;;2089607;28;20108;-40
2024/01/26 01:34:28;;;;;;;5.55;3.03;;;;;;;;;;2088845;28;20021;-40
2024/01/26 01:35:29;;;;;;;10.95;3.50;;;;;;;;;;2088869;28;20013;-39
2024/01/26 01:36:31;;;;;;;5.57;3.05;;;;;;;;;;2089676;28;20036;-39
2024/01/26 01:37:32;;;;;;;6.30;3.70;;;;;;;;;;2089644;28;20100;-40
2024/01/26 01:38:34;;;;;;;6.40;3.58;;;;;;;;;;2089135;28;20021;-41
2024/01/26 01:39:35;;;;;;;4.65;3.70;;;;;;;;;;2089578;28;20029;-41
2024/01/26 01:40:37;;;;;;;5.88;3.20;;;;;;;;;;2089435;28;20029;-41
2024/01/26 01:41:39;;;;;;;5.25;3.28;;;;;;;;;;2089323;28;20017;-42
2024/01/26 01:42:41;;;;;;;4.88;2.60;;;;;;;;;;2089681;28;20543;-41
2024/01/26 01:43:43;;;;;;;6.47;3.60;;;;;;;;;;2089383;28;20009;-41
2024/01/26 01:44:45;;;;;;;5.43;3.47;;;;;;;;;;2089706;28;20025;-41
2024/01/26 01:45:46;;;;;;;5.85;3.60;;;;;;;;;;2088861;28;20028;-41
2024/01/26 01:46:47;;;;;;;6.25;3.60;;;;;;;;;;2089010;28;20029;-41
2024/01/26 01:47:48;;;;;;;6.28;3.47;;;;;;;;;;2089580;28;20025;-42
2024/01/26 01:48:50;;;;;;;6.60;3.47;;;;;;;;;;2088786;28;20020;-41
2024/01/26 01:49:52;;;;;;;5.80;3.95;;;;;;;;;;2089468;28;20037;-41
2024/01/26 01:50:53;;;;;;;9.75;3.47;;;;;;;;;;2089651;28;20017;-41
2024/01/26 01:51:55;;;;;;;5.95;3.80;;;;;;;;;;2089082;28;20044;-41
2024/01/26 01:52:58;;;;;;;5.63;3.35;;;;;;;;;;2091271;28;20384;-41
2024/01/26 01:53:59;;;;;;;7.15;2.88;;;;;;;;;;2089180;28;20020;-41
2024/01/26 01:55:01;;;;;;;6.25;3.67;;;;;;;;;;2089402;28;20487;-41
2024/01/26 01:56:03;;;;;;;7.65;3.58;;;;;;;;;;2080611;28;20017;-41
2024/01/26 01:57:05;;;;;;;4.53;3.00;;;;;;;;;;2080553;28;20025;-41
2024/01/26 01:58:08;;;;;;;5.53;3.17;;;;;;;;;;2089289;28;20063;-40
2024/01/26 01:59:09;;;;;;;6.90;3.78;;;;;;;;;;2089417;28;20039;-41
2024/01/26 02:00:17;;;;;;;6.78;3.97;;;;;;;;;;2089514;28;20021;-42
2024/01/26 02:01:19;;;;;;;4.72;3.20;;;;;;;;;;2079584;28;20021;-41
2024/01/26 02:02:23;;;;;;;6.00;3.80;;;;;;;;;;2075937;28;20025;-41
2024/01/26 02:03:25;;;;;;;7.07;4.05;;;;;;;;;;2089055;28;20063;-41
2024/01/26 02:04:27;;;;;;;6.18;3.35;;;;;;;;;;2089520;28;20025;-40
2024/01/26 02:05:28;;;;;;;8.00;3.60;;;;;;;;;;2089174;28;20025;-41
2024/01/26 02:06:29;;;;;;;5.93;3.75;;;;;;;;;;2089364;28;20020;-41
2024/01/26 02:07:31;;;;;;;5.93;3.50;;;;;;;;;;2089062;28;20094;-40
2024/01/26 02:08:32;;;;;;;7.45;3.40;;;;;;;;;;2089224;28;20108;-40
2024/01/26 02:09:33;;;;;;;8.27;4.07;;;;;;;;;;2089331;28;20051;-39
2024/01/26 02:10:35;;;;;;;4.97;3.22;;;;;;;;;;2089427;28;20032;-40
2024/01/26 02:11:36;;;;;;;6.72;3.10;;;;;;;;;;2089110;28;20055;-41
2024/01/26 02:12:37;;;;;;;5.50;3.20;;;;;;;;;;2089110;28;20013;-40
2024/01/26 02:13:38;;;;;;;7.93;3.97;;;;;;;;;;2089452;28;20028;-40
2024/01/26 02:14:40;;;;;;;9.25;3.55;;;;;;;;;;2089050;28;20039;-40
2024/01/26 02:15:41;;;;;;;5.20;3.28;;;;;;;;;;2080304;28;20529;-41
2024/01/26 02:16:54;;;;;;;7.38;3.45;;;;;;;;;;2080360;28;20028;-41
2024/01/26 02:17:55;;;;;;;6.97;3.63;;;;;;;;;;2080316;28;20025;-40
2024/01/26 02:18:56;;;;;;;4.88;3.00;;;;;;;;;;2079088;28;20025;-41
2024/01/26 02:19:58;;;;;;;7.65;3.47;;;;;;;;;;2089149;28;20009;-41
2024/01/26 02:20:59;;;;;;;5.45;3.03;;;;;;;;;;2089030;28;20009;-40
2024/01/26 02:22:01;;;;;;;4.78;3.47;;;;;;;;;;2089034;28;20044;-40
2024/01/26 02:23:02;;;;;;;6.53;3.63;;;;;;;;;;2089127;28;20009;-40
2024/01/26 02:24:03;;;;;;;5.60;2.92;;;;;;;;;;2088986;28;20025;-40
2024/01/26 02:25:05;;;;;;;4.55;3.20;;;;;;;;;;2089405;28;20082;-40
2024/01/26 02:26:07;;;;;;;5.13;3.60;;;;;;;;;;2089159;28;20032;-40
2024/01/26 02:27:10;;;;;;;4.88;3.10;;;;;;;;;;2089040;28;20031;-40
2024/01/26 02:28:11;;;;;;;5.95;3.20;;;;;;;;;;2080456;28;20528;-40
2024/01/26 02:29:13;;;;;;;5.95;3.67;;;;;;;;;;2080250;28;20100;-40
2024/01/26 02:30:14;;;;;;;8.18;4.15;;;;;;;;;;2090266;28;20081;-40
2024/01/26 02:31:15;;;;;;;6.53;3.55;;;;;;;;;;2080741;28;20025;-40
2024/01/26 02:32:16;;;;;;;6.72;3.75;;;;;;;;;;2080246;28;20034;-40
2024/01/26 02:33:18;;;;;;;4.75;3.28;;;;;;;;;;2089368;28;20017;-41
2024/01/26 02:34:19;;;;;;;4.88;3.20;;;;;;;;;;2088889;28;20017;-40
2024/01/26 02:35:21;;;;;;;4.75;3.15;;;;;;;;;;2089065;28;20056;-39
2024/01/26 02:36:22;;;;;;;4.50;3.10;;;;;;;;;;2089368;28;20376;-40
2024/01/26 02:37:23;;;;;;;5.38;3.65;;;;;;;;;;2088792;28;20029;-43
2024/01/26 02:38:24;;;;;;;7.30;3.47;;;;;;;;;;2089090;28;20025;-42
2024/01/26 02:39:27;;;;;;;6.28;3.22;;;;;;;;;;2088697;28;20029;-41
2024/01/26 02:40:29;;;;;;;5.95;3.05;;;;;;;;;;2088985;28;20044;-42
2024/01/26 02:41:31;;;;;;;4.93;3.25;;;;;;;;;;2089108;28;20120;-41
2024/01/26 02:42:32;;;;;;;7.35;3.80;;;;;;;;;;2080042;28;20022;-40
2024/01/26 02:43:33;;;;;;;6.65;3.40;;;;;;;;;;2080144;28;20034;-39
2024/01/26 02:44:34;;;;;;;6.50;3.35;;;;;;;;;;2089094;28;20084;-41
2024/01/26 02:45:36;;;;;;;6.40;3.78;;;;;;;;;;2089100;28;20096;-39
2024/01/26 02:46:38;;;;;;;5.20;3.17;;;;;;;;;;2089030;28;20005;-39
2024/01/26 02:47:39;;;;;;;6.40;3.10;;;;;;;;;;2089162;28;20049;-40
2024/01/26 02:48:40;;;;;;;5.18;3.28;;;;;;;;;;2088942;28;20088;-40
2024/01/26 02:49:45;;;;;;;4.50;2.80;;;;;;;;;;2089126;28;20112;-42
2024/01/26 02:50:46;;;;;;;5.47;3.13;;;;;;;;;;2089182;28;20013;-39
2024/01/26 02:51:47;;;;;;;5.70;3.60;;;;;;;;;;2088810;28;20025;-42
2024/01/26 02:52:48;;;;;;;5.63;3.33;;;;;;;;;;2089076;28;20028;-41
2024/01/26 02:53:50;;;;;;;3.67;3.08;;;;;;;;;;2088733;28;20029;-41
2024/01/26 02:54:52;;;;;;;5.85;3.33;;;;;;;;;;2088902;28;20059;-41
2024/01/26 02:55:53;;;;;;;4.10;2.83;;;;;;;;;;2089251;28;20556;-42
2024/01/26 02:56:56;;;;;;;5.65;3.55;;;;;;;;;;2088895;28;20644;-42
2024/01/26 02:57:58;;;;;;;5.00;3.42;;;;;;;;;;2088943;28;20546;-41
2024/01/26 02:58:59;;;;;;;4.78;2.75;;;;;;;;;;2080251;28;20030;-42
2024/01/26 03:00:00;;;;;;;6.20;3.60;;;;;;;;;;2080139;28;20089;-43
2024/01/26 03:01:02;;;;;;;6.70;3.65;;;;;;;;;;2088918;28;20416;-40
2024/01/26 03:02:03;;;;;;;4.72;3.17;;;;;;;;;;2088649;28;20037;-42
2024/01/26 03:03:05;;;;;;;5.85;3.20;;;;;;;;;;2088895;28;20029;-42
2024/01/26 03:04:07;;;;;;;3.97;2.47;;;;;;;;;;2089205;28;20793;-39
2024/01/26 03:05:08;;;;;;;4.57;3.38;;;;;;;;;;2088978;28;20028;-41
2024/01/26 03:06:11;;;;;;;4.82;2.95;;;;;;;;;;2089010;28;20013;-41
2024/01/26 03:07:13;;;;;;;3.85;3.00;;;;;;;;;;2089048;28;20075;-43
2024/01/26 03:08:14;;;;;;;5.55;3.15;;;;;;;;;;2088831;28;20706;-42
2024/01/26 03:09:15;;;;;;;5.20;2.90;;;;;;;;;;2088726;28;20021;-41
2024/01/26 03:10:17;;;;;;;5.07;2.92;;;;;;;;;;2089057;28;20092;-43
2024/01/26 03:11:18;;;;;;;5.65;3.25;;;;;;;;;;2089064;28;20404;-40
2024/01/26 03:12:19;;;;;;;4.63;3.15;;;;;;;;;;2088784;28;20419;-42
2024/01/26 03:13:20;;;;;;;4.47;3.08;;;;;;;;;;2079712;28;20079;-41
2024/01/26 03:14:22;;;;;;;6.10;3.42;;;;;;;;;;2080124;28;20029;-43
2024/01/26 03:15:23;;;;;;;7.28;3.40;;;;;;;;;;2089035;28;20013;-41
2024/01/26 03:16:24;;;;;;;4.93;3.13;;;;;;;;;;2088944;28;20040;-41
2024/01/26 03:17:26;;;;;;;5.00;3.10;;;;;;;;;;2089661;28;20029;-42
2024/01/26 03:18:27;;;;;;;4.97;2.95;;;;;;;;;;2090748;28;20025;-41
2024/01/26 03:19:28;;;;;;;4.47;3.00;;;;;;;;;;2090546;28;20036;-42
2024/01/26 03:20:32;;;;;;;4.55;2.88;;;;;;;;;;2090683;28;20029;-40
2024/01/26 03:21:33;;;;;;;4.60;2.80;;;;;;;;;;2090480;28;20108;-41
2024/01/26 03:22:35;;;;;;;3.90;2.60;;;;;;;;;;2081710;28;20021;-40
2024/01/26 03:23:37;;;;;;;5.05;3.00;;;;;;;;;;2081986;28;20419;-40
2024/01/26 03:24:39;;;;;;;4.10;2.83;;;;;;;;;;2090401;28;20025;-40
2024/01/26 03:25:40;;;;;;;4.85;3.20;;;;;;;;;;2090584;28;20415;-41
2024/01/26 03:26:41;;;;;;;5.22;3.08;;;;;;;;;;2090853;28;20360;-41
2024/01/26 03:27:43;;;;;;;4.85;2.83;;;;;;;;;;2090389;28;20048;-41
2024/01/26 03:28:44;;;;;;;5.03;3.00;;;;;;;;;;2081549;28;20104;-41
2024/01/26 03:29:45;;;;;;;4.22;3.10;;;;;;;;;;2081966;28;20116;-40
2024/01/26 03:30:47;;;;;;;5.60;3.20;;;;;;;;;;2089761;28;20120;-40
2024/01/26 03:31:48;;;;;;;3.90;2.95;;;;;;;;;;2090497;28;20016;-40
2024/01/26 03:32:50;;;;;;;3.88;2.63;;;;;;;;;;2090377;28;20052;-41
2024/01/26 03:33:51;;;;;;;5.70;3.15;;;;;;;;;;2090511;28;20490;-39
2024/01/26 03:34:52;;;;;;;5.70;3.00;;;;;;;;;;2090285;28;20095;-40
2024/01/26 03:35:53;;;;;;;4.57;2.85;;;;;;;;;;2090352;28;20028;-40
2024/01/26 03:36:55;;;;;;;5.57;3.50;;;;;;;;;;2090285;28;20017;-39
2024/01/26 03:37:56;;;;;;;7.03;2.67;;;;;;;;;;2090518;28;20021;-39
2024/01/26 03:38:57;;;;;;;5.15;2.72;;;;;;;;;;2090404;28;20029;-39
2024/01/26 03:39:59;;;;;;;5.35;2.97;;;;;;;;;;2090437;28;20040;-40
2024/01/26 03:41:01;;;;;;;4.72;3.10;;;;;;;;;;2090692;28;20025;-39
2024/01/26 03:42:02;;;;;;;4.38;3.10;;;;;;;;;;2090091;28;20570;-40
2024/01/26 03:43:03;;;;;;;6.13;2.88;;;;;;;;;;2090594;28;20025;-40
2024/01/26 03:44:05;;;;;;;4.28;2.83;;;;;;;;;;2090232;28;20098;-39
2024/01/26 03:45:07;;;;;;;4.30;2.55;;;;;;;;;;2090264;28;20066;-40
2024/01/26 03:46:08;;;;;;;6.18;2.42;;;;;;;;;;2081498;28;20476;-40
2024/01/26 03:47:10;;;;;;;5.13;3.20;;;;;;;;;;2081486;28;20060;-40
2024/01/26 03:48:11;;;;;;;7.28;3.03;;;;;;;;;;2090245;28;20032;-40
2024/01/26 03:49:12;;;;;;;5.38;2.58;;;;;;;;;;2086965;28;20028;-40
2024/01/26 03:50:14;;;;;;;4.88;2.75;;;;;;;;;;2090472;28;20079;-40
2024/01/26 03:51:15;;;;;;;4.57;2.60;;;;;;;;;;2090469;28;20143;-40
2024/01/26 03:52:16;;;;;;;4.45;2.58;;;;;;;;;;2090256;28;20480;-40
2024/01/26 03:53:17;;;;;;;4.78;3.20;;;;;;;;;;2089583;28;20021;-40
2024/01/26 03:54:19;;;;;;;5.47;3.00;;;;;;;;;;2090317;28;20025;-40
2024/01/26 03:55:20;;;;;;;4.95;2.70;;;;;;;;;;2090117;28;20025;-41
2024/01/26 03:56:21;;;;;;;4.63;3.03;;;;;;;;;;2089778;28;20171;-40
2024/01/26 03:57:22;;;;;;;6.45;2.67;;;;;;;;;;2089695;28;20025;-39
2024/01/26 03:58:24;;;;;;;4.38;2.60;;;;;;;;;;2090245;28;20169;-40
2024/01/26 03:59:25;;;;;;;4.72;2.83;;;;;;;;;;2090498;28;20079;-39
2024/01/26 04:00:26;;;;;;;5.40;3.13;;;;;;;;;;2090255;28;20029;-43
2024/01/26 04:01:27;;;;;;;4.50;3.33;;;;;;;;;;2090106;28;20108;-42
2024/01/26 04:02:29;;;;;;;4.15;3.00;;;;;;;;;;2090480;28;20036;-41
2024/01/26 04:03:30;;;;;;;5.13;3.15;;;;;;;;;;2082895;28;20032;-43
2024/01/26 04:04:31;;;;;;;4.25;3.03;;;;;;;;;;2081377;28;20152;-41
2024/01/26 04:05:32;;;;;;;6.68;3.15;;;;;;;;;;2090403;28;20116;-43
2024/01/26 04:06:38;;;;;;;5.93;2.67;;;;;;;;;;2090039;28;20013;-42
2024/01/26 04:07:40;;;;;;;3.38;2.80;;;;;;;;;;2090108;28;20364;-42
2024/01/26 04:08:41;;;;;;;5.22;2.80;;;;;;;;;;2090105;28;20028;-40
2024/01/26 04:09:42;;;;;;;5.32;2.55;;;;;;;;;;2086812;28;20420;-40
2024/01/26 04:10:44;;;;;;;4.05;2.63;;;;;;;;;;2081346;28;20408;-40
2024/01/26 04:11:45;;;;;;;4.85;2.60;;;;;;;;;;2081267;28;20021;-40
2024/01/26 04:12:46;;;;;;;3.78;2.55;;;;;;;;;;2090150;28;20515;-41
2024/01/26 04:13:47;;;;;;;4.90;3.00;;;;;;;;;;2090089;28;20025;-40
2024/01/26 04:14:49;;;;;;;4.70;2.70;;;;;;;;;;2089968;28;20013;-40
2024/01/26 04:15:50;;;;;;;4.03;2.70;;;;;;;;;;2081204;28;20484;-42
2024/01/26 04:16:51;;;;;;;4.32;2.60;;;;;;;;;;2081621;28;20022;-40
2024/01/26 04:17:53;;;;;;;6.20;2.95;;;;;;;;;;2089348;28;20467;-39
2024/01/26 04:18:54;;;;;;;3.80;2.45;;;;;;;;;;2090019;28;20025;-40
2024/01/26 04:19:56;;;;;;;6.35;2.75;;;;;;;;;;2090417;28;20579;-40
2024/01/26 04:20:57;;;;;;;3.63;2.60;;;;;;;;;;2090058;28;20043;-40
2024/01/26 04:21:58;;;;;;;5.57;2.80;;;;;;;;;;2090094;28;20064;-40
2024/01/26 04:22:59;;;;;;;4.00;2.50;;;;;;;;;;2090420;28;20021;-41
2024/01/26 04:24:01;;;;;;;4.82;2.70;;;;;;;;;;2090354;28;20021;-41
2024/01/26 04:25:02;;;;;;;3.58;2.78;;;;;;;;;;2081576;28;20021;-40
2024/01/26 04:26:05;;;;;;;6.18;2.78;;;;;;;;;;2081268;28;20025;-41
2024/01/26 04:27:07;;;;;;;5.70;3.08;;;;;;;;;;2090196;28;20021;-41
2024/01/26 04:28:09;;;;;;;6.55;3.17;;;;;;;;;;2089669;28;20021;-40
2024/01/26 04:29:10;;;;;;;4.85;2.83;;;;;;;;;;2089449;28;20441;-41
2024/01/26 04:30:12;;;;;;;5.32;3.00;;;;;;;;;;2090113;28;20021;-41
2024/01/26 04:31:13;;;;;;;5.07;2.83;;;;;;;;;;2090213;28;20016;-41
2024/01/26 04:32:14;;;;;;;4.53;2.88;;;;;;;;;;2090056;28;20541;-41
2024/01/26 04:33:15;;;;;;;3.28;2.40;;;;;;;;;;2090032;28;20017;-40
2024/01/26 04:34:17;;;;;;;4.30;2.58;;;;;;;;;;2089774;28;20457;-40
2024/01/26 04:35:18;;;;;;;4.45;2.78;;;;;;;;;;2089690;28;20033;-40
2024/01/26 04:36:20;;;;;;;3.83;2.78;;;;;;;;;;2090209;28;20086;-41
2024/01/26 04:37:21;;;;;;;3.80;2.22;;;;;;;;;;2089841;28;20032;-41
2024/01/26 04:38:23;;;;;;;3.50;2.53;;;;;;;;;;2089624;28;20476;-41
2024/01/26 04:39:24;;;;;;;5.28;2.15;;;;;;;;;;2089962;28;20037;-41
2024/01/26 04:40:26;;;;;;;4.18;2.85;;;;;;;;;;2089911;28;20043;-41
2024/01/26 04:41:28;;;;;;;3.80;2.35;;;;;;;;;;2089866;28;20039;-41
2024/01/26 04:42:29;;;;;;;4.07;2.42;;;;;;;;;;2089963;28;20025;-40
2024/01/26 04:43:30;;;;;;;4.13;2.58;;;;;;;;;;2090003;28;20017;-41
2024/01/26 04:44:31;;;;;;;4.22;2.42;;;;;;;;;;2089811;28;20020;-40
2024/01/26 04:45:33;;;;;;;5.78;2.67;;;;;;;;;;2088463;28;20017;-41
2024/01/26 04:46:34;;;;;;;3.85;2.63;;;;;;;;;;2096312;28;20109;-41
2024/01/26 04:47:35;;;;;;;4.55;2.28;;;;;;;;;;2093470;28;20198;-41
2024/01/26 04:48:37;;;;;;;4.32;2.72;;;;;;;;;;2089464;28;20479;-41
2024/01/26 04:49:38;;;;;;;5.10;2.83;;;;;;;;;;2081170;28;20045;-41
2024/01/26 04:50:39;;;;;;;4.47;2.53;;;;;;;;;;2080955;28;20096;-40
2024/01/26 04:51:41;;;;;;;3.80;2.67;;;;;;;;;;2089191;28;20024;-41
2024/01/26 04:52:42;;;;;;;4.30;2.08;;;;;;;;;;2089114;28;20031;-41
2024/01/26 04:53:43;;;;;;;5.18;2.80;;;;;;;;;;2097525;28;20507;-41
2024/01/26 04:54:46;;;;;;;3.53;2.22;;;;;;;;;;2097460;28;20654;-41
2024/01/26 04:55:48;;;;;;;4.15;2.47;;;;;;;;;;2090087;28;20291;-41
2024/01/26 04:56:49;;;;;;;5.40;2.70;;;;;;;;;;2090276;28;20036;-42
2024/01/26 04:57:50;;;;;;;4.47;2.47;;;;;;;;;;2090462;28;20044;-40
2024/01/26 04:58:52;;;;;;;4.78;2.90;;;;;;;;;;2088092;28;20027;-41
2024/01/26 04:59:53;;;;;;;5.22;3.03;;;;;;;;;;2089918;28;20013;-41
2024/01/26 05:00:54;;;;;;;3.92;2.15;;;;;;;;;;2086068;28;20096;-41
2024/01/26 05:01:58;;;;;;;5.30;2.38;;;;;;;;;;2089905;28;20371;-41
2024/01/26 05:02:59;;;;;;;5.00;2.40;;;;;;;;;;2090027;28;20067;-41
2024/01/26 05:04:03;;;;;;;3.17;2.28;;;;;;;;;;2089029;28;20009;-41
2024/01/26 05:05:05;;;;;;;4.07;2.50;;;;;;;;;;2079319;28;20026;-41
2024/01/26 05:06:06;;;;;;;6.35;2.63;;;;;;;;;;2081130;28;20149;-41
2024/01/26 05:07:07;;;;;;;4.07;2.30;;;;;;;;;;2089078;28;20029;-41
2024/01/26 05:08:09;;;;;;;4.10;2.58;;;;;;;;;;2089065;28;20384;-41
2024/01/26 05:09:11;;;;;;;4.47;2.20;;;;;;;;;;2089210;28;20387;-41
2024/01/26 05:10:12;;;;;;;4.43;2.70;;;;;;;;;;2089765;28;20100;-40
2024/01/26 05:11:13;;;;;;;3.55;2.30;;;;;;;;;;2089372;28;20528;-40
2024/01/26 05:12:16;;;;;;;3.75;2.42;;;;;;;;;;2089605;28;20110;-41
2024/01/26 05:13:17;;;;;;;5.78;2.83;;;;;;;;;;2080846;28;20086;-41
2024/01/26 05:14:18;;;;;;;3.70;2.53;;;;;;;;;;2080919;28;20125;-43
2024/01/26 05:15:19;;;;;;;5.57;2.50;;;;;;;;;;2081082;28;20558;-40
2024/01/26 05:16:21;;;;;;;4.50;2.45;;;;;;;;;;2086033;28;20021;-40
2024/01/26 05:17:22;;;;;;;3.90;2.47;;;;;;;;;;2081932;28;20029;-41
2024/01/26 05:18:23;;;;;;;4.03;2.20;;;;;;;;;;2090029;28;20045;-41
2024/01/26 05:19:25;;;;;;;4.00;2.20;;;;;;;;;;2089578;28;20029;-41
2024/01/26 05:20:26;;;;;;;4.68;2.50;;;;;;;;;;2090043;28;20025;-41
2024/01/26 05:21:27;;;;;;;3.28;2.08;;;;;;;;;;2089402;28;20078;-41
2024/01/26 05:22:29;;;;;;;5.38;2.67;;;;;;;;;;2089661;28;20097;-42
2024/01/26 05:23:30;;;;;;;4.90;2.53;;;;;;;;;;2089838;28;20431;-41
2024/01/26 05:24:31;;;;;;;5.13;2.50;;;;;;;;;;2088929;28;20021;-43
2024/01/26 05:25:32;;;;;;;4.25;2.60;;;;;;;;;;2088687;28;20365;-43
2024/01/26 05:26:37;;;;;;;4.18;2.40;;;;;;;;;;2090086;28;20033;-41
2024/01/26 05:27:41;;;;;;;4.93;2.60;;;;;;;;;;2089439;28;20013;-42
2024/01/26 05:28:42;;;;;;;3.95;2.80;;;;;;;;;;2089562;28;20399;-41
2024/01/26 05:29:43;;;;;;;4.70;2.70;;;;;;;;;;2089848;28;20100;-41
2024/01/26 05:30:45;;;;;;;4.97;2.85;;;;;;;;;;2089094;28;20426;-43
2024/01/26 05:31:46;;;;;;;4.60;2.92;;;;;;;;;;2089825;28;20025;-43
2024/01/26 05:32:47;;;;;;;3.28;2.50;;;;;;;;;;2089336;28;20029;-42
2024/01/26 05:33:48;;;;;;;4.50;2.83;;;;;;;;;;2089638;28;20100;-43
2024/01/26 05:34:50;;;;;;;3.78;2.38;;;;;;;;;;2089790;28;20017;-42
2024/01/26 05:35:52;;;;;;;6.00;3.00;;;;;;;;;;2080588;28;20013;-42
2024/01/26 05:36:53;;;;;;;4.43;2.45;;;;;;;;;;2080970;28;20017;-43
2024/01/26 05:37:55;;;;;;;5.25;2.38;;;;;;;;;;2089285;28;20020;-43
2024/01/26 05:38:56;;;;;;;3.30;2.50;;;;;;;;;;2089047;28;20029;-41
2024/01/26 05:39:57;;;;;;;6.90;2.80;;;;;;;;;;2088572;28;20407;-40
2024/01/26 05:40:59;;;;;;;4.25;3.10;;;;;;;;;;2089668;28;20025;-41
2024/01/26 05:42:00;;;;;;;3.60;2.50;;;;;;;;;;2090074;28;20021;-41
2024/01/26 05:43:01;;;;;;;3.85;2.50;;;;;;;;;;2090293;28;20063;-43
2024/01/26 05:44:03;;;;;;;4.85;2.50;;;;;;;;;;2090153;28;20561;-44
2024/01/26 05:45:04;;;;;;;7.15;3.00;;;;;;;;;;2089549;28;20405;-40
2024/01/26 05:46:06;;;;;;;5.50;2.40;;;;;;;;;;2090127;28;20021;-43
2024/01/26 05:47:07;;;;;;;3.08;2.17;;;;;;;;;;2081004;28;20017;-41
2024/01/26 05:48:08;;;;;;;4.55;2.70;;;;;;;;;;2080835;28;20037;-42
2024/01/26 05:49:10;;;;;;;2.70;2.00;;;;;;;;;;2089654;28;20021;-41
2024/01/26 05:50:11;;;;;;;3.53;2.38;;;;;;;;;;2080745;28;20021;-41
2024/01/26 05:51:13;;;;;;;4.72;3.03;;;;;;;;;;2076680;28;20026;-41
2024/01/26 05:52:14;;;;;;;6.45;2.92;;;;;;;;;;2090105;28;20025;-40
2024/01/26 05:53:16;;;;;;;4.35;2.47;;;;;;;;;;2089588;28;20098;-41
2024/01/26 05:54:17;;;;;;;5.03;2.58;;;;;;;;;;2088443;28;20088;-41
2024/01/26 05:55:18;;;;;;;4.88;2.65;;;;;;;;;;2089327;28;20044;-42
2024/01/26 05:56:20;;;;;;;4.05;2.70;;;;;;;;;;2089796;28;20078;-42
2024/01/26 05:57:21;;;;;;;4.22;2.15;;;;;;;;;;2089501;28;20515;-41
2024/01/26 05:58:22;;;;;;;4.35;2.38;;;;;;;;;;2089740;28;20029;-41
2024/01/26 05:59:23;;;;;;;4.20;2.42;;;;;;;;;;2089537;28;20021;-41
2024/01/26 06:00:25;;;;;;;4.88;2.13;;;;;;;;;;2089440;28;20025;-40
2024/01/26 06:01:26;;;;;;;5.43;2.60;;;;;;;;;;2089692;28;20032;-41
2024/01/26 06:02:28;;;;;;;4.80;2.40;;;;;;;;;;2080734;28;20044;-41
2024/01/26 06:03:29;;;;;;;4.32;2.50;;;;;;;;;;2080824;28;20021;-41
2024/01/26 06:04:33;;;;;;;3.00;2.05;;;;;;;;;;2088615;28;20021;-40
2024/01/26 06:05:34;;;;;;;5.30;2.75;;;;;;;;;;2083937;28;20022;-40
2024/01/26 06:06:36;;;;;;;4.22;2.38;;;;;;;;;;2089342;28;20017;-40
2024/01/26 06:07:37;;;;;;;4.72;2.55;;;;;;;;;;2089398;28;20029;-41
2024/01/26 06:08:43;;;;;;;5.20;2.45;;;;;;;;;;2089648;28;20013;-42